RJEO(METAR)
12/16 14:00
RJEO 160500Z 30014KT 9999 SN FEW020 SCT025 BKN030 M02/M06 Q1010 RMK
A2982=
戻る
トップページへ戻る
IMOC Co,.Ltd.